Aérodrome :
LOGIN :

S'inscrire | Disclaimer

   EN    FR    IT 

 










Légende :    VFR   VFR Marginal   IFR   IFR Intensif   IFR Très Intensif
Visi : 
Plafond : 
>= 8 km
>= 3000ft
5 à 8 km
1000 à 3000 ft
1500m à 5 km
500 à 1000 ft
800 à 1500m
200 à 500 ft
< 800m
< 200 ft
Symboles :   Orages  Brouillard  Fortes neiges  Fortes précipitations  Vent > 20 kt
SIGMETs :   Divers  Orages  Givrage  Turbulence  Onde Orograph.  Cendres Volcan.






- Altitude de l'aérodrome : 25 ft
- Code IATA : QCY


EGXC - RAF Coningsby

DERNIER METAR :
  • 280050Z 19010KT 9999 FEW030 SCT050 BKN120 04/03 Q0987 RMK BLU

METARs EXPIRÉS :
  • 272350Z 19009KT 9999 FEW035 BKN140 BKN250 04/03 Q0988 RMK BLU
  • 272250Z 19007KT 9999 FEW035 BKN060 03/03 Q0989 RMK BLU

TAF TAF EGXC
Valide du 28 à 00h jusqu'au 28 à 18h UTC


272215Z 2800/2818 19010KT 9999 SCT030
TEMPO 2800/2813 -SHRA SCT015
PROB30
TEMPO 2801/2803 6000 SHRA BKN010
PROB30
TEMPO 2806/2809 5000 -SHRASN BKN010
BECMG 2807/2810 26015G25KT
BECMG 2816/2818 26012KT



MET'MAP, la Météo Aéronautique d'un coup d'oeil ! - Copyright ORBIFLY Décembre 2007 - Disclaimer

ORBIFLY MET'MAP TEAM :

Programmation & Développement : Alexandra Zaïnal
Sur une idée originale de : Baudouin d'Aumeries
Assistance à la programmation : Marc-Olivier Méhu
Soutien technique & logistique : Manuel Goepfert

Contact : metmap@orbifly.com




SOURCES & CREDITS :

   NOAA